sensor_id;sensor_type;location;lat;lon;timestamp;P1;durP1;ratioP1;P2;durP2;ratioP2
53652;SDS011;39553;52.954;5.932;2022-08-19T00:01:50;12.23;;;6.53;;
53652;SDS011;39553;52.954;5.932;2022-08-19T00:04:18;15.00;;;6.78;;
53652;SDS011;39553;52.954;5.932;2022-08-19T00:06:49;11.75;;;7.28;;
53652;SDS011;39553;52.954;5.932;2022-08-19T00:09:16;12.18;;;8.30;;
53652;SDS011;39553;52.954;5.932;2022-08-19T00:11:44;12.75;;;7.32;;
53652;SDS011;39553;52.954;5.932;2022-08-19T00:14:11;10.85;;;7.25;;
53652;SDS011;39553;52.954;5.932;2022-08-19T00:16:41;10.50;;;7.20;;
53652;SDS011;39553;52.954;5.932;2022-08-19T00:19:08;10.73;;;7.47;;
53652;SDS011;39553;52.954;5.932;2022-08-19T00:21:34;15.85;;;7.93;;
53652;SDS011;39553;52.954;5.932;2022-08-19T00:24:05;13.90;;;6.93;;
53652;SDS011;39553;52.954;5.932;2022-08-19T00:26:35;12.55;;;7.20;;
53652;SDS011;39553;52.954;5.932;2022-08-19T00:29:03;13.35;;;7.60;;
53652;SDS011;39553;52.954;5.932;2022-08-19T00:31:30;14.38;;;7.57;;
53652;SDS011;39553;52.954;5.932;2022-08-19T00:33:56;11.15;;;7.38;;
53652;SDS011;39553;52.954;5.932;2022-08-19T00:36:22;12.05;;;7.50;;
53652;SDS011;39553;52.954;5.932;2022-08-19T00:38:48;13.82;;;6.85;;
53652;SDS011;39553;52.954;5.932;2022-08-19T00:41:17;11.65;;;6.85;;
53652;SDS011;39553;52.954;5.932;2022-08-19T00:46:36;10.93;;;7.35;;
53652;SDS011;39553;52.954;5.932;2022-08-19T00:49:06;10.23;;;7.30;;
53652;SDS011;39553;52.954;5.932;2022-08-19T00:51:53;13.75;;;7.70;;
53652;SDS011;39553;52.954;5.932;2022-08-19T00:54:24;16.83;;;6.90;;
53652;SDS011;39553;52.954;5.932;2022-08-19T00:56:51;15.45;;;7.68;;
53652;SDS011;39553;52.954;5.932;2022-08-19T00:59:17;11.35;;;7.90;;
53652;SDS011;39553;52.954;5.932;2022-08-19T01:01:44;12.48;;;7.93;;
53652;SDS011;39553;52.954;5.932;2022-08-19T01:04:11;11.45;;;6.85;;
53652;SDS011;39553;52.954;5.932;2022-08-19T01:06:38;13.70;;;7.55;;
53652;SDS011;39553;52.954;5.932;2022-08-19T01:09:06;12.82;;;7.90;;
53652;SDS011;39553;52.954;5.932;2022-08-19T01:11:34;11.60;;;7.60;;
53652;SDS011;39553;52.954;5.932;2022-08-19T01:14:03;13.48;;;7.65;;
53652;SDS011;39553;52.954;5.932;2022-08-19T01:16:29;11.63;;;7.40;;
53652;SDS011;39553;52.954;5.932;2022-08-19T01:18:56;12.00;;;7.93;;
53652;SDS011;39553;52.954;5.932;2022-08-19T01:21:24;14.45;;;7.80;;
53652;SDS011;39553;52.954;5.932;2022-08-19T01:23:54;12.13;;;7.10;;
53652;SDS011;39553;52.954;5.932;2022-08-19T01:26:21;10.23;;;7.43;;
53652;SDS011;39553;52.954;5.932;2022-08-19T01:28:49;11.13;;;7.43;;
53652;SDS011;39553;52.954;5.932;2022-08-19T01:31:18;11.70;;;7.35;;
53652;SDS011;39553;52.954;5.932;2022-08-19T01:33:47;10.90;;;7.82;;
53652;SDS011;39553;52.954;5.932;2022-08-19T01:36:15;13.85;;;8.27;;
53652;SDS011;39553;52.954;5.932;2022-08-19T01:38:51;14.75;;;7.90;;
53652;SDS011;39553;52.954;5.932;2022-08-19T01:41:17;12.07;;;7.50;;
53652;SDS011;39553;52.954;5.932;2022-08-19T01:43:44;14.60;;;8.75;;
53652;SDS011;39553;52.954;5.932;2022-08-19T01:46:10;16.27;;;7.47;;
53652;SDS011;39553;52.954;5.932;2022-08-19T01:48:37;10.38;;;7.30;;
53652;SDS011;39553;52.954;5.932;2022-08-19T01:51:05;15.23;;;8.30;;
53652;SDS011;39553;52.954;5.932;2022-08-19T01:53:32;12.13;;;8.40;;
53652;SDS011;39553;52.954;5.932;2022-08-19T01:55:58;12.02;;;7.90;;
53652;SDS011;39553;52.954;5.932;2022-08-19T01:58:27;14.95;;;7.63;;
53652;SDS011;39553;52.954;5.932;2022-08-19T02:00:57;12.23;;;8.38;;
53652;SDS011;39553;52.954;5.932;2022-08-19T02:03:24;12.77;;;7.95;;
53652;SDS011;39553;52.954;5.932;2022-08-19T02:05:53;13.75;;;7.97;;
53652;SDS011;39553;52.954;5.932;2022-08-19T02:08:21;14.63;;;8.52;;
53652;SDS011;39553;52.954;5.932;2022-08-19T02:10:47;17.00;;;8.65;;
53652;SDS011;39553;52.954;5.932;2022-08-19T02:13:13;14.18;;;9.50;;
53652;SDS011;39553;52.954;5.932;2022-08-19T02:15:39;14.25;;;8.68;;
53652;SDS011;39553;52.954;5.932;2022-08-19T02:18:05;14.73;;;9.00;;
53652;SDS011;39553;52.954;5.932;2022-08-19T02:20:33;13.80;;;8.80;;
53652;SDS011;39553;52.954;5.932;2022-08-19T02:23:00;14.20;;;8.80;;
53652;SDS011;39553;52.954;5.932;2022-08-19T02:25:26;16.27;;;9.25;;
53652;SDS011;39553;52.954;5.932;2022-08-19T02:27:52;18.08;;;8.63;;
53652;SDS011;39553;52.954;5.932;2022-08-19T02:30:19;17.02;;;8.93;;
53652;SDS011;39553;52.954;5.932;2022-08-19T02:32:45;16.52;;;10.32;;
53652;SDS011;39553;52.954;5.932;2022-08-19T02:35:12;15.50;;;8.90;;
53652;SDS011;39553;52.954;5.932;2022-08-19T02:37:39;16.25;;;10.60;;
53652;SDS011;39553;52.954;5.932;2022-08-19T02:40:25;15.35;;;9.60;;
53652;SDS011;39553;52.954;5.932;2022-08-19T02:42:52;17.55;;;10.55;;
53652;SDS011;39553;52.954;5.932;2022-08-19T02:45:17;15.85;;;10.38;;
53652;SDS011;39553;52.954;5.932;2022-08-19T02:47:43;21.70;;;10.50;;
53652;SDS011;39553;52.954;5.932;2022-08-19T02:50:10;20.08;;;10.38;;
53652;SDS011;39553;52.954;5.932;2022-08-19T02:52:36;16.95;;;9.85;;
53652;SDS011;39553;52.954;5.932;2022-08-19T02:55:02;15.85;;;10.23;;
53652;SDS011;39553;52.954;5.932;2022-08-19T02:57:29;17.27;;;9.77;;
53652;SDS011;39553;52.954;5.932;2022-08-19T02:59:56;15.90;;;9.95;;
53652;SDS011;39553;52.954;5.932;2022-08-19T03:02:22;17.75;;;10.85;;
53652;SDS011;39553;52.954;5.932;2022-08-19T03:04:48;16.52;;;10.93;;
53652;SDS011;39553;52.954;5.932;2022-08-19T03:07:14;15.98;;;9.55;;
53652;SDS011;39553;52.954;5.932;2022-08-19T03:09:40;16.50;;;10.20;;
53652;SDS011;39553;52.954;5.932;2022-08-19T03:12:07;16.70;;;11.30;;
53652;SDS011;39553;52.954;5.932;2022-08-19T03:14:33;17.25;;;10.82;;
53652;SDS011;39553;52.954;5.932;2022-08-19T03:16:59;17.92;;;10.52;;
53652;SDS011;39553;52.954;5.932;2022-08-19T03:19:26;21.33;;;11.25;;
53652;SDS011;39553;52.954;5.932;2022-08-19T03:21:52;18.58;;;11.85;;
53652;SDS011;39553;52.954;5.932;2022-08-19T03:24:19;15.80;;;10.18;;
53652;SDS011;39553;52.954;5.932;2022-08-19T03:26:46;20.25;;;11.25;;
53652;SDS011;39553;52.954;5.932;2022-08-19T03:29:14;20.63;;;11.65;;
53652;SDS011;39553;52.954;5.932;2022-08-19T03:31:42;21.85;;;11.43;;
53652;SDS011;39553;52.954;5.932;2022-08-19T03:34:10;18.42;;;11.30;;
53652;SDS011;39553;52.954;5.932;2022-08-19T03:36:37;18.85;;;11.10;;
53652;SDS011;39553;52.954;5.932;2022-08-19T03:39:03;24.67;;;12.88;;
53652;SDS011;39553;52.954;5.932;2022-08-19T03:41:31;20.02;;;11.60;;
53652;SDS011;39553;52.954;5.932;2022-08-19T03:44:01;18.52;;;12.02;;
53652;SDS011;39553;52.954;5.932;2022-08-19T03:46:29;20.65;;;13.02;;
53652;SDS011;39553;52.954;5.932;2022-08-19T03:48:58;19.70;;;11.85;;
53652;SDS011;39553;52.954;5.932;2022-08-19T03:51:27;20.13;;;12.70;;
53652;SDS011;39553;52.954;5.932;2022-08-19T03:54:00;19.70;;;11.82;;
53652;SDS011;39553;52.954;5.932;2022-08-19T03:56:28;19.42;;;12.02;;
53652;SDS011;39553;52.954;5.932;2022-08-19T03:58:55;24.73;;;12.65;;
53652;SDS011;39553;52.954;5.932;2022-08-19T04:01:22;21.90;;;13.60;;
53652;SDS011;39553;52.954;5.932;2022-08-19T04:03:51;19.35;;;12.68;;
53652;SDS011;39553;52.954;5.932;2022-08-19T04:06:19;21.40;;;12.85;;
53652;SDS011;39553;52.954;5.932;2022-08-19T04:08:47;24.48;;;13.10;;
53652;SDS011;39553;52.954;5.932;2022-08-19T04:11:16;22.70;;;13.60;;
53652;SDS011;39553;52.954;5.932;2022-08-19T04:13:45;26.40;;;14.25;;
53652;SDS011;39553;52.954;5.932;2022-08-19T04:16:11;24.45;;;13.90;;
53652;SDS011;39553;52.954;5.932;2022-08-19T04:18:37;23.75;;;14.13;;
53652;SDS011;39553;52.954;5.932;2022-08-19T04:21:04;23.98;;;14.20;;
53652;SDS011;39553;52.954;5.932;2022-08-19T04:23:31;21.55;;;13.95;;
53652;SDS011;39553;52.954;5.932;2022-08-19T04:25:57;26.88;;;14.60;;
53652;SDS011;39553;52.954;5.932;2022-08-19T04:28:24;22.63;;;13.98;;
53652;SDS011;39553;52.954;5.932;2022-08-19T04:30:50;24.13;;;13.73;;
53652;SDS011;39553;52.954;5.932;2022-08-19T04:33:19;20.52;;;13.95;;
53652;SDS011;39553;52.954;5.932;2022-08-19T04:35:48;27.20;;;14.90;;
53652;SDS011;39553;52.954;5.932;2022-08-19T04:38:15;24.48;;;14.60;;
53652;SDS011;39553;52.954;5.932;2022-08-19T04:40:44;22.63;;;14.60;;
53652;SDS011;39553;52.954;5.932;2022-08-19T04:43:33;24.38;;;15.50;;
53652;SDS011;39553;52.954;5.932;2022-08-19T04:46:08;31.70;;;15.77;;
53652;SDS011;39553;52.954;5.932;2022-08-19T04:48:35;25.38;;;15.23;;
53652;SDS011;39553;52.954;5.932;2022-08-19T04:51:05;27.38;;;15.55;;
53652;SDS011;39553;52.954;5.932;2022-08-19T04:53:33;27.27;;;14.50;;
53652;SDS011;39553;52.954;5.932;2022-08-19T04:56:04;27.48;;;15.73;;
53652;SDS011;39553;52.954;5.932;2022-08-19T04:58:41;29.42;;;16.27;;
53652;SDS011;39553;52.954;5.932;2022-08-19T05:01:08;29.10;;;15.63;;
53652;SDS011;39553;52.954;5.932;2022-08-19T05:03:38;27.35;;;16.38;;
53652;SDS011;39553;52.954;5.932;2022-08-19T05:06:08;24.98;;;14.70;;
53652;SDS011;39553;52.954;5.932;2022-08-19T05:08:37;33.25;;;16.10;;
53652;SDS011;39553;52.954;5.932;2022-08-19T05:11:13;25.02;;;14.55;;
53652;SDS011;39553;52.954;5.932;2022-08-19T05:13:45;27.38;;;15.80;;
53652;SDS011;39553;52.954;5.932;2022-08-19T05:16:12;31.40;;;16.05;;
53652;SDS011;39553;52.954;5.932;2022-08-19T05:18:39;29.75;;;16.33;;
53652;SDS011;39553;52.954;5.932;2022-08-19T05:21:26;29.17;;;15.52;;
53652;SDS011;39553;52.954;5.932;2022-08-19T05:24:10;26.83;;;16.33;;
53652;SDS011;39553;52.954;5.932;2022-08-19T05:26:40;28.25;;;15.68;;
53652;SDS011;39553;52.954;5.932;2022-08-19T05:29:08;26.30;;;15.48;;
53652;SDS011;39553;52.954;5.932;2022-08-19T05:31:35;23.92;;;15.98;;
53652;SDS011;39553;52.954;5.932;2022-08-19T05:34:03;24.52;;;15.88;;
53652;SDS011;39553;52.954;5.932;2022-08-19T05:36:33;25.25;;;14.68;;
53652;SDS011;39553;52.954;5.932;2022-08-19T05:39:02;31.10;;;17.00;;
53652;SDS011;39553;52.954;5.932;2022-08-19T05:41:29;29.38;;;16.45;;
53652;SDS011;39553;52.954;5.932;2022-08-19T05:44:00;28.38;;;15.00;;
53652;SDS011;39553;52.954;5.932;2022-08-19T05:46:28;26.20;;;16.30;;
53652;SDS011;39553;52.954;5.932;2022-08-19T05:48:54;22.83;;;14.95;;
53652;SDS011;39553;52.954;5.932;2022-08-19T05:51:21;26.85;;;14.63;;
53652;SDS011;39553;52.954;5.932;2022-08-19T05:53:48;28.35;;;15.40;;
53652;SDS011;39553;52.954;5.932;2022-08-19T05:56:15;22.70;;;13.77;;
53652;SDS011;39553;52.954;5.932;2022-08-19T05:58:42;21.08;;;14.68;;
53652;SDS011;39553;52.954;5.932;2022-08-19T06:01:14;22.52;;;13.88;;
53652;SDS011;39553;52.954;5.932;2022-08-19T06:03:41;21.65;;;12.55;;
53652;SDS011;39553;52.954;5.932;2022-08-19T06:06:08;19.08;;;12.65;;
53652;SDS011;39553;52.954;5.932;2022-08-19T06:08:35;21.50;;;12.45;;
53652;SDS011;39553;52.954;5.932;2022-08-19T06:11:16;16.00;;;11.43;;
53652;SDS011;39553;52.954;5.932;2022-08-19T06:13:49;18.38;;;12.25;;
53652;SDS011;39553;52.954;5.932;2022-08-19T06:16:20;15.32;;;10.75;;
53652;SDS011;39553;52.954;5.932;2022-08-19T06:18:50;15.23;;;10.38;;
53652;SDS011;39553;52.954;5.932;2022-08-19T06:21:18;15.77;;;10.18;;
53652;SDS011;39553;52.954;5.932;2022-08-19T06:23:46;16.02;;;10.13;;
53652;SDS011;39553;52.954;5.932;2022-08-19T06:26:13;15.80;;;10.95;;
53652;SDS011;39553;52.954;5.932;2022-08-19T06:28:40;16.02;;;10.35;;
53652;SDS011;39553;52.954;5.932;2022-08-19T06:31:19;14.80;;;10.48;;
53652;SDS011;39553;52.954;5.932;2022-08-19T06:33:47;15.50;;;10.00;;
53652;SDS011;39553;52.954;5.932;2022-08-19T06:38:46;14.45;;;10.02;;
53652;SDS011;39553;52.954;5.932;2022-08-19T06:41:12;16.55;;;11.00;;
53652;SDS011;39553;52.954;5.932;2022-08-19T06:43:38;18.02;;;11.48;;
53652;SDS011;39553;52.954;5.932;2022-08-19T06:46:09;17.65;;;10.93;;
53652;SDS011;39553;52.954;5.932;2022-08-19T06:48:36;14.65;;;11.43;;
53652;SDS011;39553;52.954;5.932;2022-08-19T06:51:03;15.82;;;11.73;;
53652;SDS011;39553;52.954;5.932;2022-08-19T06:53:30;18.73;;;11.68;;
53652;SDS011;39553;52.954;5.932;2022-08-19T06:55:56;16.20;;;11.95;;
53652;SDS011;39553;52.954;5.932;2022-08-19T06:58:29;15.63;;;10.63;;
53652;SDS011;39553;52.954;5.932;2022-08-19T07:00:59;15.52;;;11.40;;
53652;SDS011;39553;52.954;5.932;2022-08-19T07:03:29;15.93;;;11.10;;
53652;SDS011;39553;52.954;5.932;2022-08-19T07:05:56;16.27;;;11.25;;
53652;SDS011;39553;52.954;5.932;2022-08-19T07:08:27;14.30;;;11.00;;
53652;SDS011;39553;52.954;5.932;2022-08-19T07:10:53;15.60;;;9.95;;
53652;SDS011;39553;52.954;5.932;2022-08-19T07:13:19;14.48;;;11.35;;
53652;SDS011;39553;52.954;5.932;2022-08-19T07:15:46;15.65;;;12.35;;
53652;SDS011;39553;52.954;5.932;2022-08-19T07:18:14;14.02;;;11.40;;
53652;SDS011;39553;52.954;5.932;2022-08-19T07:20:40;17.13;;;12.90;;
53652;SDS011;39553;52.954;5.932;2022-08-19T07:23:06;14.90;;;11.98;;
53652;SDS011;39553;52.954;5.932;2022-08-19T07:25:32;15.77;;;11.23;;
53652;SDS011;39553;52.954;5.932;2022-08-19T07:27:58;18.67;;;12.20;;
53652;SDS011;39553;52.954;5.932;2022-08-19T07:30:23;19.50;;;12.43;;
53652;SDS011;39553;52.954;5.932;2022-08-19T07:32:49;15.52;;;12.27;;
53652;SDS011;39553;52.954;5.932;2022-08-19T07:35:17;18.10;;;12.93;;
53652;SDS011;39553;52.954;5.932;2022-08-19T07:37:44;15.13;;;12.63;;
53652;SDS011;39553;52.954;5.932;2022-08-19T07:40:11;18.35;;;13.77;;
53652;SDS011;39553;52.954;5.932;2022-08-19T07:42:37;16.05;;;12.85;;
53652;SDS011;39553;52.954;5.932;2022-08-19T07:45:03;20.00;;;14.50;;
53652;SDS011;39553;52.954;5.932;2022-08-19T07:47:30;16.27;;;13.50;;
53652;SDS011;39553;52.954;5.932;2022-08-19T07:49:56;19.92;;;16.30;;
53652;SDS011;39553;52.954;5.932;2022-08-19T07:52:21;20.15;;;15.57;;
53652;SDS011;39553;52.954;5.932;2022-08-19T07:54:47;18.67;;;15.55;;
53652;SDS011;39553;52.954;5.932;2022-08-19T07:57:15;19.63;;;15.20;;
53652;SDS011;39553;52.954;5.932;2022-08-19T07:59:41;25.27;;;17.10;;
53652;SDS011;39553;52.954;5.932;2022-08-19T08:02:08;26.02;;;18.95;;
53652;SDS011;39553;52.954;5.932;2022-08-19T08:04:34;24.33;;;19.25;;
53652;SDS011;39553;52.954;5.932;2022-08-19T08:07:19;26.27;;;19.23;;
53652;SDS011;39553;52.954;5.932;2022-08-19T08:10:05;26.15;;;19.13;;
53652;SDS011;39553;52.954;5.932;2022-08-19T08:12:39;24.10;;;18.90;;
53652;SDS011;39553;52.954;5.932;2022-08-19T08:15:08;25.10;;;19.80;;
53652;SDS011;39553;52.954;5.932;2022-08-19T08:17:43;22.67;;;17.90;;
53652;SDS011;39553;52.954;5.932;2022-08-19T08:20:09;25.15;;;19.75;;
53652;SDS011;39553;52.954;5.932;2022-08-19T08:22:36;24.27;;;18.17;;
53652;SDS011;39553;52.954;5.932;2022-08-19T08:25:21;23.70;;;20.13;;
53652;SDS011;39553;52.954;5.932;2022-08-19T08:27:48;22.65;;;18.13;;
53652;SDS011;39553;52.954;5.932;2022-08-19T08:30:16;24.15;;;18.58;;
53652;SDS011;39553;52.954;5.932;2022-08-19T08:32:44;28.25;;;18.52;;
53652;SDS011;39553;52.954;5.932;2022-08-19T08:35:11;22.08;;;18.70;;
53652;SDS011;39553;52.954;5.932;2022-08-19T08:37:38;24.05;;;17.73;;
53652;SDS011;39553;52.954;5.932;2022-08-19T08:40:06;25.35;;;20.38;;
53652;SDS011;39553;52.954;5.932;2022-08-19T08:42:51;28.00;;;20.55;;
53652;SDS011;39553;52.954;5.932;2022-08-19T08:45:25;25.50;;;19.30;;
53652;SDS011;39553;52.954;5.932;2022-08-19T08:47:53;26.45;;;19.63;;
53652;SDS011;39553;52.954;5.932;2022-08-19T08:52:55;21.70;;;16.75;;
53652;SDS011;39553;52.954;5.932;2022-08-19T08:55:24;25.58;;;15.55;;
53652;SDS011;39553;52.954;5.932;2022-08-19T09:02:50;20.95;;;14.95;;
53652;SDS011;39553;52.954;5.932;2022-08-19T09:05:16;19.73;;;13.38;;
53652;SDS011;39553;52.954;5.932;2022-08-19T09:12:51;23.05;;;14.40;;
53652;SDS011;39553;52.954;5.932;2022-08-19T09:15:21;15.43;;;12.40;;
53652;SDS011;39553;52.954;5.932;2022-08-19T09:17:53;21.80;;;13.82;;
53652;SDS011;39553;52.954;5.932;2022-08-19T09:20:20;17.92;;;12.70;;
53652;SDS011;39553;52.954;5.932;2022-08-19T09:22:48;22.20;;;14.40;;
53652;SDS011;39553;52.954;5.932;2022-08-19T09:25:18;22.10;;;13.52;;
53652;SDS011;39553;52.954;5.932;2022-08-19T09:27:48;17.48;;;13.27;;
53652;SDS011;39553;52.954;5.932;2022-08-19T09:30:18;19.10;;;12.95;;
53652;SDS011;39553;52.954;5.932;2022-08-19T09:32:52;15.00;;;11.45;;
53652;SDS011;39553;52.954;5.932;2022-08-19T09:35:23;18.98;;;12.13;;
53652;SDS011;39553;52.954;5.932;2022-08-19T09:37:50;19.65;;;11.00;;
53652;SDS011;39553;52.954;5.932;2022-08-19T09:40:17;13.13;;;10.65;;
53652;SDS011;39553;52.954;5.932;2022-08-19T09:42:43;15.27;;;12.23;;
53652;SDS011;39553;52.954;5.932;2022-08-19T09:45:12;12.43;;;10.60;;
53652;SDS011;39553;52.954;5.932;2022-08-19T09:47:42;17.33;;;11.10;;
53652;SDS011;39553;52.954;5.932;2022-08-19T09:50:09;14.15;;;11.55;;
53652;SDS011;39553;52.954;5.932;2022-08-19T09:52:36;19.20;;;13.80;;
53652;SDS011;39553;52.954;5.932;2022-08-19T09:55:03;20.55;;;11.90;;
53652;SDS011;39553;52.954;5.932;2022-08-19T09:57:30;16.60;;;12.63;;
53652;SDS011;39553;52.954;5.932;2022-08-19T09:59:55;17.38;;;12.15;;
53652;SDS011;39553;52.954;5.932;2022-08-19T10:02:21;14.10;;;9.70;;
53652;SDS011;39553;52.954;5.932;2022-08-19T10:04:47;12.93;;;9.55;;
53652;SDS011;39553;52.954;5.932;2022-08-19T10:07:31;16.15;;;12.32;;
53652;SDS011;39553;52.954;5.932;2022-08-19T10:09:57;14.20;;;11.40;;
53652;SDS011;39553;52.954;5.932;2022-08-19T10:12:23;13.95;;;11.18;;
53652;SDS011;39553;52.954;5.932;2022-08-19T10:14:48;12.65;;;10.13;;
53652;SDS011;39553;52.954;5.932;2022-08-19T10:17:16;14.85;;;10.90;;
53652;SDS011;39553;52.954;5.932;2022-08-19T10:19:42;15.02;;;11.98;;
53652;SDS011;39553;52.954;5.932;2022-08-19T10:22:08;13.88;;;11.77;;
53652;SDS011;39553;52.954;5.932;2022-08-19T10:24:39;12.95;;;10.95;;
53652;SDS011;39553;52.954;5.932;2022-08-19T10:27:06;13.68;;;10.77;;
53652;SDS011;39553;52.954;5.932;2022-08-19T10:29:32;14.98;;;10.98;;
53652;SDS011;39553;52.954;5.932;2022-08-19T10:32:03;14.68;;;11.55;;
53652;SDS011;39553;52.954;5.932;2022-08-19T10:34:32;17.85;;;12.55;;
53652;SDS011;39553;52.954;5.932;2022-08-19T10:36:58;18.23;;;11.55;;
53652;SDS011;39553;52.954;5.932;2022-08-19T10:39:25;16.45;;;11.57;;
53652;SDS011;39553;52.954;5.932;2022-08-19T10:41:54;15.05;;;13.45;;
53652;SDS011;39553;52.954;5.932;2022-08-19T10:44:21;18.27;;;11.50;;
53652;SDS011;39553;52.954;5.932;2022-08-19T10:46:49;17.15;;;11.07;;
53652;SDS011;39553;52.954;5.932;2022-08-19T10:49:14;17.77;;;11.95;;
53652;SDS011;39553;52.954;5.932;2022-08-19T10:51:41;19.38;;;12.68;;
53652;SDS011;39553;52.954;5.932;2022-08-19T10:54:26;17.25;;;13.38;;
53652;SDS011;39553;52.954;5.932;2022-08-19T10:57:12;18.10;;;13.77;;
53652;SDS011;39553;52.954;5.932;2022-08-19T10:59:39;18.98;;;13.68;;
53652;SDS011;39553;52.954;5.932;2022-08-19T11:02:05;18.55;;;13.70;;
53652;SDS011;39553;52.954;5.932;2022-08-19T11:04:35;19.17;;;13.98;;
53652;SDS011;39553;52.954;5.932;2022-08-19T11:07:02;22.60;;;17.02;;
53652;SDS011;39553;52.954;5.932;2022-08-19T11:09:29;19.13;;;16.85;;
53652;SDS011;39553;52.954;5.932;2022-08-19T11:11:56;15.10;;;11.40;;
53652;SDS011;39553;52.954;5.932;2022-08-19T11:14:22;16.65;;;13.95;;
53652;SDS011;39553;52.954;5.932;2022-08-19T11:16:50;20.40;;;14.68;;
53652;SDS011;39553;52.954;5.932;2022-08-19T11:19:21;16.08;;;11.30;;
53652;SDS011;39553;52.954;5.932;2022-08-19T11:21:49;17.15;;;12.00;;
53652;SDS011;39553;52.954;5.932;2022-08-19T11:24:23;18.10;;;13.05;;
53652;SDS011;39553;52.954;5.932;2022-08-19T11:26:51;17.48;;;13.00;;
53652;SDS011;39553;52.954;5.932;2022-08-19T11:29:19;25.27;;;16.08;;
53652;SDS011;39553;52.954;5.932;2022-08-19T11:31:47;21.48;;;15.45;;
53652;SDS011;39553;52.954;5.932;2022-08-19T11:34:15;22.35;;;17.13;;
53652;SDS011;39553;52.954;5.932;2022-08-19T11:36:43;25.33;;;16.33;;
53652;SDS011;39553;52.954;5.932;2022-08-19T11:39:11;23.35;;;17.05;;
53652;SDS011;39553;52.954;5.932;2022-08-19T11:41:39;25.55;;;17.55;;
53652;SDS011;39553;52.954;5.932;2022-08-19T11:44:05;22.15;;;14.32;;
53652;SDS011;39553;52.954;5.932;2022-08-19T11:46:33;19.17;;;15.65;;
53652;SDS011;39553;52.954;5.932;2022-08-19T11:49:00;25.55;;;18.45;;
53652;SDS011;39553;52.954;5.932;2022-08-19T11:51:30;22.13;;;15.90;;
53652;SDS011;39553;52.954;5.932;2022-08-19T11:53:57;29.02;;;19.48;;
53652;SDS011;39553;52.954;5.932;2022-08-19T11:56:24;30.02;;;21.17;;
53652;SDS011;39553;52.954;5.932;2022-08-19T11:58:50;24.17;;;17.33;;
53652;SDS011;39553;52.954;5.932;2022-08-19T12:01:18;26.73;;;18.52;;
53652;SDS011;39553;52.954;5.932;2022-08-19T12:03:50;25.05;;;16.42;;
53652;SDS011;39553;52.954;5.932;2022-08-19T12:06:19;29.73;;;19.50;;
53652;SDS011;39553;52.954;5.932;2022-08-19T12:08:55;28.77;;;22.65;;
53652;SDS011;39553;52.954;5.932;2022-08-19T12:11:22;27.85;;;18.48;;
53652;SDS011;39553;52.954;5.932;2022-08-19T12:13:48;23.50;;;15.32;;
53652;SDS011;39553;52.954;5.932;2022-08-19T12:16:16;23.33;;;14.95;;
53652;SDS011;39553;52.954;5.932;2022-08-19T12:18:44;22.85;;;17.23;;
53652;SDS011;39553;52.954;5.932;2022-08-19T12:21:16;19.23;;;10.95;;
53652;SDS011;39553;52.954;5.932;2022-08-19T12:23:48;19.27;;;13.68;;
53652;SDS011;39553;52.954;5.932;2022-08-19T12:26:15;17.55;;;12.60;;
53652;SDS011;39553;52.954;5.932;2022-08-19T12:28:42;14.95;;;11.30;;
53652;SDS011;39553;52.954;5.932;2022-08-19T12:31:08;23.17;;;14.73;;
53652;SDS011;39553;52.954;5.932;2022-08-19T12:33:37;24.15;;;13.90;;
53652;SDS011;39553;52.954;5.932;2022-08-19T12:36:04;17.48;;;10.48;;
53652;SDS011;39553;52.954;5.932;2022-08-19T12:38:32;21.70;;;11.75;;
53652;SDS011;39553;52.954;5.932;2022-08-19T12:40:59;20.65;;;11.65;;
53652;SDS011;39553;52.954;5.932;2022-08-19T12:43:25;18.42;;;10.63;;
53652;SDS011;39553;52.954;5.932;2022-08-19T12:45:52;16.40;;;10.38;;
53652;SDS011;39553;52.954;5.932;2022-08-19T12:48:17;14.88;;;10.63;;
53652;SDS011;39553;52.954;5.932;2022-08-19T12:50:44;16.23;;;9.95;;
53652;SDS011;39553;52.954;5.932;2022-08-19T12:53:10;16.33;;;10.05;;
53652;SDS011;39553;52.954;5.932;2022-08-19T12:55:37;18.42;;;9.93;;
53652;SDS011;39553;52.954;5.932;2022-08-19T12:58:03;21.05;;;13.18;;
53652;SDS011;39553;52.954;5.932;2022-08-19T13:00:29;18.33;;;11.80;;
53652;SDS011;39553;52.954;5.932;2022-08-19T13:02:57;24.25;;;12.77;;
53652;SDS011;39553;52.954;5.932;2022-08-19T13:05:26;24.75;;;14.35;;
53652;SDS011;39553;52.954;5.932;2022-08-19T13:07:55;21.50;;;15.55;;
53652;SDS011;39553;52.954;5.932;2022-08-19T13:10:23;19.67;;;13.13;;
53652;SDS011;39553;52.954;5.932;2022-08-19T13:12:52;22.73;;;14.20;;
53652;SDS011;39553;52.954;5.932;2022-08-19T13:15:19;19.40;;;14.05;;
53652;SDS011;39553;52.954;5.932;2022-08-19T13:17:47;26.63;;;16.67;;
53652;SDS011;39553;52.954;5.932;2022-08-19T13:20:14;10.38;;;5.60;;
53652;SDS011;39553;52.954;5.932;2022-08-19T13:22:41;4.20;;;2.35;;
53652;SDS011;39553;52.954;5.932;2022-08-19T13:25:09;3.00;;;1.80;;
53652;SDS011;39553;52.954;5.932;2022-08-19T13:27:36;3.33;;;2.00;;
53652;SDS011;39553;52.954;5.932;2022-08-19T13:30:02;2.65;;;1.90;;
53652;SDS011;39553;52.954;5.932;2022-08-19T13:32:48;2.47;;;1.80;;
53652;SDS011;39553;52.954;5.932;2022-08-19T13:35:32;3.90;;;2.55;;
53652;SDS011;39553;52.954;5.932;2022-08-19T13:37:58;10.65;;;5.68;;
53652;SDS011;39553;52.954;5.932;2022-08-19T13:40:24;10.63;;;7.00;;
53652;SDS011;39553;52.954;5.932;2022-08-19T13:42:52;9.98;;;6.00;;
53652;SDS011;39553;52.954;5.932;2022-08-19T13:45:20;11.32;;;6.35;;
53652;SDS011;39553;52.954;5.932;2022-08-19T13:47:50;11.27;;;6.75;;
53652;SDS011;39553;52.954;5.932;2022-08-19T13:50:23;8.88;;;5.20;;
53652;SDS011;39553;52.954;5.932;2022-08-19T13:52:50;11.00;;;7.90;;
53652;SDS011;39553;52.954;5.932;2022-08-19T13:55:17;19.55;;;12.38;;
53652;SDS011;39553;52.954;5.932;2022-08-19T13:57:43;13.80;;;9.45;;
53652;SDS011;39553;52.954;5.932;2022-08-19T14:00:10;24.52;;;14.60;;
53652;SDS011;39553;52.954;5.932;2022-08-19T14:02:39;33.55;;;16.92;;
53652;SDS011;39553;52.954;5.932;2022-08-19T14:05:06;23.52;;;15.32;;
53652;SDS011;39553;52.954;5.932;2022-08-19T14:07:36;25.30;;;15.57;;
53652;SDS011;39553;52.954;5.932;2022-08-19T14:10:02;18.77;;;14.77;;
53652;SDS011;39553;52.954;5.932;2022-08-19T14:12:31;23.08;;;14.80;;
53652;SDS011;39553;52.954;5.932;2022-08-19T14:14:57;25.02;;;16.13;;
53652;SDS011;39553;52.954;5.932;2022-08-19T14:17:23;21.20;;;13.43;;
53652;SDS011;39553;52.954;5.932;2022-08-19T14:19:50;25.00;;;14.20;;
53652;SDS011;39553;52.954;5.932;2022-08-19T14:22:32;24.83;;;15.18;;
53652;SDS011;39553;52.954;5.932;2022-08-19T14:24:58;19.27;;;13.68;;
53652;SDS011;39553;52.954;5.932;2022-08-19T14:27:24;23.38;;;11.93;;
53652;SDS011;39553;52.954;5.932;2022-08-19T14:29:53;17.05;;;10.95;;
53652;SDS011;39553;52.954;5.932;2022-08-19T14:32:20;15.15;;;11.77;;
53652;SDS011;39553;52.954;5.932;2022-08-19T14:34:46;19.55;;;12.63;;
53652;SDS011;39553;52.954;5.932;2022-08-19T14:37:13;21.88;;;11.27;;
53652;SDS011;39553;52.954;5.932;2022-08-19T14:39:43;22.52;;;11.55;;
53652;SDS011;39553;52.954;5.932;2022-08-19T14:42:11;19.38;;;12.30;;
53652;SDS011;39553;52.954;5.932;2022-08-19T14:44:39;18.58;;;11.30;;
53652;SDS011;39553;52.954;5.932;2022-08-19T14:47:06;22.88;;;13.75;;
53652;SDS011;39553;52.954;5.932;2022-08-19T14:49:32;20.23;;;13.75;;
53652;SDS011;39553;52.954;5.932;2022-08-19T14:51:58;12.80;;;8.90;;